Portada
METAR-TAF:

METAR-TAF

Aeroports :

Aeroport d'Agadir-Al Massira

Agadir, Marroc

latitud: 30-20N, longitud: 009-24W, altitud: 74 m

Observació

L'informe es va fer fa 36 minuts, a les 10:30 UTC
Vent 7 kt del Sud/Sud-Oest
Temperatura 20°C
Humitat 83%
Pressió 1012 hPa
Visibilitat: 8000 m
Cel ennuvolat a una alçada de 2000 ft

METAR: GMAD 301030Z 20007KT 8000 BKN020 20/17 Q1012 NOSIG

Hora: 12:06 (11:06 UTC)

Pronòstic

L'informe es va fer fa 6 hores i 6 minuts, a les 05:00 UTC
Pronòstic vàlid del 30 a les 06 UTC al 31 a les 12 UTC
Vent 4 kt del Sud
Visibilitat: 8000 m
Cel ennuvolat a una alçada de 1600 ft
Evolucionant progressivament
l' 30 a les 14 UTC al 30 a les 16 UTC
Vent 14 kt del Oest
Escasses núvols a una alçada de 2000 ft

TAF: GMAD 300500Z 3006/3112 17004KT 8000 BKN016 BECMG 3014/3016 27014KT FEW020

Observacions i pronòstics meteorològics de més de 4000 aeroports (METAR i TAF).

Les estacions disponibles són els punts grocs i vermells al mapa.

Posi el ratolí al punt desitjat per veure el nom de l'estació.

Feu clic per veure les observacions i els pronòstics meteorològics.

Per canviar el mapa: feu clic els botons verds amb una creu de color negre per apropar; al botó verd amb un guió per allunyar la imatge; o en les fletxes verdes per a mapes adjacents.


METAR-TAF: